Time;durP1;ratioP1;P1;durP2;ratioP2;P2;SDS_P1;SDS_P2;PMS_P1;PMS_P2;Temp;Humidity;BMP_temperature;BMP_pressure;BME280_temperature;BME280_humidity;BME280_pressure;Samples;Min_cycle;Max_cycle;Signal;HPM_P1;HPM_P2
2023/03/02 00:01:33;;;;;;;1.65;1.00;;;;;;;11.87;50.87;95936.56;4996212;28;20521;-26
2023/03/02 00:04:01;;;;;;;2.08;0.98;;;;;;;11.58;51.42;95945.00;4995027;28;20057;-26
2023/03/02 00:06:28;;;;;;;1.02;0.73;;;;;;;11.70;50.98;95937.97;5002708;28;20026;-26
2023/03/02 00:08:54;;;;;;;2.78;0.98;;;;;;;11.85;50.99;95937.03;5004430;28;20018;-26
2023/03/02 00:11:20;;;;;;;1.15;0.77;;;;;;;11.91;50.54;95934.47;5002273;28;20073;-26
2023/03/02 00:13:46;;;;;;;1.27;0.80;;;;;;;11.83;50.05;95939.44;4996303;28;20026;-27
2023/03/02 00:16:11;;;;;;;1.17;0.80;;;;;;;11.68;50.61;95943.09;4996755;28;20032;-26
2023/03/02 00:18:37;;;;;;;1.52;1.20;;;;;;;11.63;50.98;95947.13;5000611;28;20022;-26
2023/03/02 00:21:02;;;;;;;1.77;0.98;;;;;;;11.65;50.69;95952.88;4997923;28;20018;-26
2023/03/02 00:23:28;;;;;;;3.05;1.23;;;;;;;11.69;51.44;95947.34;5002795;28;20125;-26
2023/03/02 00:25:53;;;;;;;1.77;1.15;;;;;;;11.64;50.65;95937.03;4996276;28;20026;-26
2023/03/02 00:28:19;;;;;;;2.03;1.40;;;;;;;11.81;50.46;95944.56;4999518;28;20026;-26
2023/03/02 00:30:44;;;;;;;2.63;1.35;;;;;;;11.75;50.73;95945.53;4995858;28;20097;-27
2023/03/02 00:33:10;;;;;;;1.65;1.10;;;;;;;11.55;51.21;95947.84;5003623;28;20033;-27
2023/03/02 00:35:37;;;;;;;1.95;1.10;;;;;;;11.54;51.29;95944.38;5002604;28;20028;-26
2023/03/02 00:38:03;;;;;;;3.67;2.25;;;;;;;11.63;50.94;95941.72;4995725;28;20026;-27
2023/03/02 00:40:28;;;;;;;2.08;0.93;;;;;;;11.55;51.47;95945.13;4994877;28;20056;-26
2023/03/02 00:42:53;;;;;;;1.48;1.13;;;;;;;11.61;50.99;95954.25;4995788;28;20030;-27
2023/03/02 00:45:19;;;;;;;1.50;1.08;;;;;;;11.62;50.60;95945.63;4995466;28;20025;-26
2023/03/02 00:47:44;;;;;;;1.55;1.00;;;;;;;11.61;50.46;95946.84;4998080;28;20030;-26
2023/03/02 00:50:10;;;;;;;1.38;0.90;;;;;;;11.67;50.52;95950.50;5000390;28;20018;-27
2023/03/02 00:52:36;;;;;;;1.70;1.00;;;;;;;11.61;51.11;95948.81;4995058;28;20021;-26
2023/03/02 00:55:01;;;;;;;2.33;1.15;;;;;;;11.68;50.56;95952.00;4994904;28;20029;-26
2023/03/02 00:57:27;;;;;;;1.83;0.93;;;;;;;11.79;50.73;95948.91;4995365;28;20029;-26
2023/03/02 00:59:52;;;;;;;1.08;0.98;;;;;;;11.51;51.49;95943.31;4995843;28;20052;-26
2023/03/02 01:02:20;;;;;;;1.15;0.90;;;;;;;11.44;50.96;95940.09;5001929;28;20026;-27
2023/03/02 01:04:47;;;;;;;1.50;1.08;;;;;;;11.60;50.03;95937.19;5002596;28;20022;-27
2023/03/02 01:07:19;;;;;;;1.60;1.20;;;;;;;11.57;50.74;95945.44;4995288;28;20025;-26
2023/03/02 01:09:45;;;;;;;2.13;1.17;;;;;;;11.49;51.11;95936.81;4995261;28;20467;-26
2023/03/02 01:12:11;;;;;;;1.20;1.10;;;;;;;11.33;51.87;95939.72;5002311;28;20068;-26
2023/03/02 01:14:39;;;;;;;1.90;1.30;;;;;;;11.65;51.10;95939.31;4994392;28;20049;-26
2023/03/02 01:17:06;;;;;;;2.15;1.05;;;;;;;11.69;50.58;95933.75;4996252;28;20544;-26
2023/03/02 01:19:31;;;;;;;2.40;1.30;;;;;;;11.56;50.34;95933.84;5000993;28;20078;-26
2023/03/02 01:21:57;;;;;;;1.42;1.10;;;;;;;11.39;51.37;95924.38;4995228;28;20074;-26
2023/03/02 01:24:22;;;;;;;1.92;1.00;;;;;;;11.56;50.72;95924.94;5008504;28;20026;-26
2023/03/02 01:26:48;;;;;;;2.67;1.25;;;;;;;11.69;50.11;95929.06;5002779;28;20022;-26
2023/03/02 01:29:13;;;;;;;1.58;1.08;;;;;;;11.56;50.78;95925.69;5002232;28;20022;-26
2023/03/02 01:31:39;;;;;;;1.35;1.00;;;;;;;11.62;50.82;95923.16;5001590;28;20505;-26
2023/03/02 01:34:05;;;;;;;1.50;1.20;;;;;;;11.40;51.32;95918.50;5001977;28;20030;-26
2023/03/02 01:36:30;;;;;;;1.60;1.13;;;;;;;11.57;51.06;95921.78;4995738;28;20108;-27
2023/03/02 01:38:56;;;;;;;1.67;1.30;;;;;;;11.53;51.23;95923.84;4994761;28;20185;-26
2023/03/02 01:41:21;;;;;;;1.67;1.20;;;;;;;11.55;51.22;95918.75;5002084;28;20030;-26
2023/03/02 01:43:47;;;;;;;1.98;1.17;;;;;;;11.72;50.30;95922.75;4997768;28;20029;-26
2023/03/02 01:46:34;;;;;;;1.85;1.15;;;;;;;11.63;50.08;95917.25;4997700;28;20022;-26
2023/03/02 01:49:03;;;;;;;1.77;1.08;;;;;;;11.52;50.97;95911.47;4994831;28;20021;-26
2023/03/02 01:51:33;;;;;;;1.80;1.20;;;;;;;11.59;50.98;95916.66;4995442;28;20053;-26
2023/03/02 01:54:07;;;;;;;3.33;1.60;;;;;;;11.62;50.86;95901.44;4997949;28;20108;-26
2023/03/02 01:56:36;;;;;;;2.03;1.27;;;;;;;11.41;51.20;95902.97;4997290;28;20018;-26
2023/03/02 01:59:07;;;;;;;1.40;1.08;;;;;;;11.64;50.55;95905.19;4994835;28;20058;-26
2023/03/02 02:01:36;;;;;;;1.30;1.00;;;;;;;11.58;50.86;95901.56;4994681;28;20042;-26
2023/03/02 02:04:02;;;;;;;1.85;1.30;;;;;;;11.67;50.96;95904.31;5001851;28;20022;-26
2023/03/02 02:06:41;;;;;;;2.85;1.50;;;;;;;11.82;50.13;95899.88;4997133;28;20370;-26
2023/03/02 02:09:11;;;;;;;1.73;1.25;;;;;;;11.70;50.62;95908.09;4998686;28;20026;-26
2023/03/02 02:11:37;;;;;;;1.60;1.27;;;;;;;11.62;50.41;95913.03;5004890;28;20110;-26
2023/03/02 02:14:04;;;;;;;1.98;1.40;;;;;;;11.59;49.67;95915.91;5000296;28;20026;-27
2023/03/02 02:16:31;;;;;;;2.22;1.35;;;;;;;11.71;50.11;95912.34;5003977;28;20029;-26
2023/03/02 02:18:57;;;;;;;2.22;1.27;;;;;;;11.74;50.69;95920.34;4998808;28;20034;-26
2023/03/02 02:21:25;;;;;;;2.10;1.60;;;;;;;11.51;50.39;95923.53;5004249;28;20024;-26
2023/03/02 02:24:23;;;;;;;1.50;1.30;;;;;;;11.33;50.96;95920.72;5003842;28;20492;-26
2023/03/02 02:26:51;;;;;;;1.58;1.20;;;;;;;11.56;50.53;95925.69;4997696;28;20053;-26
2023/03/02 02:29:28;;;;;;;2.50;1.85;;;;;;;11.53;50.45;95926.56;4998674;28;20429;-26
2023/03/02 02:32:02;;;;;;;2.17;1.40;;;;;;;11.57;50.77;95921.00;4998183;28;20025;-27
2023/03/02 02:34:36;;;;;;;1.90;1.55;;;;;;;11.50;50.98;95916.59;5005191;28;20108;-26
2023/03/02 02:37:12;;;;;;;2.72;1.95;;;;;;;11.56;50.83;95920.25;5003227;28;20425;-26
2023/03/02 02:39:43;;;;;;;3.63;2.00;;;;;;;11.40;51.49;95923.94;4997164;28;20053;-26
2023/03/02 02:42:31;;;;;;;2.40;1.73;;;;;;;11.57;50.83;95927.19;4998050;28;20092;-26
2023/03/02 02:45:01;;;;;;;2.53;1.88;;;;;;;11.43;51.30;95920.34;4997831;28;20030;-26
2023/03/02 02:47:27;;;;;;;2.08;1.52;;;;;;;11.36;50.76;95923.31;5004765;28;20026;-26
2023/03/02 02:49:54;;;;;;;1.90;1.42;;;;;;;11.47;51.31;95922.94;5000179;28;20076;-26
2023/03/02 02:52:23;;;;;;;1.90;1.30;;;;;;;11.40;51.13;95923.16;5008449;28;20037;-26
2023/03/02 02:54:51;;;;;;;2.08;1.48;;;;;;;11.36;51.32;95930.72;4998154;28;20021;-27
2023/03/02 02:57:18;;;;;;;2.65;1.45;;;;;;;11.44;51.20;95915.66;4997637;28;20029;-26
2023/03/02 02:59:48;;;;;;;1.92;1.40;;;;;;;11.43;51.49;95906.75;4997713;28;20057;-26
2023/03/02 03:02:20;;;;;;;1.98;1.48;;;;;;;11.45;51.73;95903.59;5003451;28;20447;-26
2023/03/02 03:04:46;;;;;;;2.70;1.48;;;;;;;11.63;51.65;95906.41;5004595;28;20026;-27
2023/03/02 03:07:18;;;;;;;2.92;1.40;;;;;;;11.53;51.47;95911.03;4996076;28;20497;-26
2023/03/02 03:09:52;;;;;;;3.15;1.63;;;;;;;11.29;52.10;95907.28;4997613;28;20025;-26
2023/03/02 03:12:23;;;;;;;2.13;1.50;;;;;;;11.25;52.79;95900.47;4997174;28;20022;-26
2023/03/02 03:14:49;;;;;;;2.50;1.48;;;;;;;11.41;51.96;95902.97;4997373;28;20023;-27
2023/03/02 03:17:15;;;;;;;3.88;1.60;;;;;;;11.28;52.82;95903.03;5010538;28;20034;-27
2023/03/02 03:19:43;;;;;;;3.70;1.48;;;;;;;11.37;52.95;95910.50;4997165;28;20033;-26
2023/03/02 03:22:10;;;;;;;2.35;1.45;;;;;;;11.16;53.33;95910.06;4997729;28;20026;-26
2023/03/02 03:24:37;;;;;;;2.47;1.88;;;;;;;11.09;53.52;95901.41;4997109;28;20839;-27
2023/03/02 03:27:04;;;;;;;2.10;1.30;;;;;;;11.41;53.05;95903.72;4997308;28;20038;-26
2023/03/02 03:29:30;;;;;;;4.18;1.50;;;;;;;11.45;53.12;95898.16;4999026;28;20021;-26
2023/03/02 03:31:57;;;;;;;1.98;1.40;;;;;;;11.39;52.91;95900.69;5006184;28;20118;-26
2023/03/02 03:34:23;;;;;;;4.43;1.60;;;;;;;11.50;52.78;95895.63;4996100;28;20026;-26
2023/03/02 03:36:49;;;;;;;2.28;1.50;;;;;;;11.56;53.32;95895.81;4996857;28;20026;-26
2023/03/02 03:39:16;;;;;;;2.25;1.42;;;;;;;11.50;53.19;95897.56;4996877;28;20031;-26
2023/03/02 03:41:41;;;;;;;2.22;1.48;;;;;;;11.40;53.48;95904.16;4996838;28;20062;-26
2023/03/02 03:44:08;;;;;;;3.15;1.70;;;;;;;11.52;52.90;95906.03;5003018;28;20101;-26
2023/03/02 03:46:33;;;;;;;3.35;1.98;;;;;;;11.51;53.09;95907.25;4997493;28;20022;-26
2023/03/02 03:48:59;;;;;;;3.67;1.85;;;;;;;11.33;53.65;95905.19;4996410;28;20041;-26
2023/03/02 03:51:25;;;;;;;2.00;1.50;;;;;;;11.29;54.12;95892.94;5003698;28;20026;-27
2023/03/02 03:54:00;;;;;;;2.80;1.40;;;;;;;11.36;53.08;95884.56;4997059;28;20021;-26
2023/03/02 03:56:30;;;;;;;2.38;1.20;;;;;;;11.23;53.65;95873.00;5002719;28;20037;-26
2023/03/02 03:59:05;;;;;;;2.00;1.45;;;;;;;11.34;53.57;95874.13;4998545;28;20011;-27
2023/03/02 04:01:37;;;;;;;1.55;1.05;;;;;;;11.30;52.91;95870.03;4999674;28;20073;-26
2023/03/02 04:04:04;;;;;;;1.20;1.05;;;;;;;11.35;52.75;95872.94;5003587;28;20028;-27
2023/03/02 04:06:30;;;;;;;2.20;1.23;;;;;;;11.31;52.84;95868.81;4996242;28;20037;-27
2023/03/02 04:08:55;;;;;;;1.92;1.38;;;;;;;11.34;53.23;95863.28;4996938;28;20458;-27
2023/03/02 04:11:21;;;;;;;1.88;1.20;;;;;;;11.23;53.78;95859.44;5002080;28;20092;-27
2023/03/02 04:13:47;;;;;;;2.75;1.10;;;;;;;11.30;53.22;95854.50;5002831;28;20035;-26
2023/03/02 04:16:13;;;;;;;1.88;1.30;;;;;;;11.36;52.90;95862.84;5003268;28;20381;-26
2023/03/02 04:18:38;;;;;;;2.80;1.38;;;;;;;11.35;53.05;95856.66;4995836;28;20034;-26
2023/03/02 04:21:04;;;;;;;1.60;1.10;;;;;;;11.25;53.54;95854.34;5002214;28;20038;-26
2023/03/02 04:23:29;;;;;;;2.75;1.42;;;;;;;11.34;53.31;95865.22;5002289;28;20018;-26
2023/03/02 04:25:55;;;;;;;1.77;1.00;;;;;;;11.36;53.14;95857.41;5001455;28;20036;-26
2023/03/02 04:28:20;;;;;;;1.80;1.17;;;;;;;11.39;52.42;95861.91;4995957;28;20413;-26
2023/03/02 04:30:46;;;;;;;1.40;1.00;;;;;;;11.43;52.38;95862.56;4995606;28;20367;-26
2023/03/02 04:33:11;;;;;;;2.17;1.13;;;;;;;11.51;52.37;95858.38;4996374;28;20053;-26
2023/03/02 04:35:37;;;;;;;3.33;1.25;;;;;;;11.34;52.78;95852.41;4997951;28;20033;-26
2023/03/02 04:38:02;;;;;;;1.60;1.00;;;;;;;11.35;52.66;95867.50;4999972;28;20081;-27
2023/03/02 04:40:28;;;;;;;1.42;0.90;;;;;;;11.32;52.67;95859.47;5002826;28;20444;-27
2023/03/02 04:42:53;;;;;;;2.63;1.08;;;;;;;11.42;52.21;95861.03;4996124;28;20462;-26
2023/03/02 04:45:19;;;;;;;1.30;1.13;;;;;;;11.43;52.57;95857.13;4995967;28;20014;-26
2023/03/02 04:47:45;;;;;;;2.20;1.48;;;;;;;11.39;52.96;95854.53;4995881;28;20454;-26
2023/03/02 04:50:13;;;;;;;1.60;1.10;;;;;;;11.42;52.90;95861.03;5002122;28;20022;-26
2023/03/02 04:52:40;;;;;;;1.55;1.00;;;;;;;11.33;52.87;95859.03;5009838;28;20014;-26
2023/03/02 04:55:06;;;;;;;1.95;1.15;;;;;;;11.23;53.33;95854.00;4995651;28;20101;-26
2023/03/02 04:57:34;;;;;;;2.33;1.08;;;;;;;11.23;53.31;95857.50;4995260;28;20113;-26
2023/03/02 04:59:59;;;;;;;1.92;1.13;;;;;;;11.36;52.57;95858.16;5002317;28;20572;-26
2023/03/02 05:02:24;;;;;;;1.35;1.17;;;;;;;11.52;52.17;95862.59;5000681;28;20088;-26
2023/03/02 05:04:50;;;;;;;2.20;1.10;;;;;;;11.43;52.76;95862.56;4997293;28;20069;-26
2023/03/02 05:07:15;;;;;;;1.65;1.10;;;;;;;11.49;53.19;95868.94;5001707;28;20022;-26
2023/03/02 05:09:41;;;;;;;1.13;0.85;;;;;;;11.57;51.88;95872.88;4995219;28;20030;-26
2023/03/02 05:12:06;;;;;;;1.45;1.00;;;;;;;11.42;52.98;95871.91;4995952;28;20041;-26
2023/03/02 05:14:33;;;;;;;2.53;0.90;;;;;;;11.53;52.72;95866.81;5000482;28;20498;-26
2023/03/02 05:16:58;;;;;;;3.38;1.10;;;;;;;11.41;53.07;95879.28;5004100;28;20026;-26
2023/03/02 05:19:24;;;;;;;1.45;0.90;;;;;;;11.51;52.21;95877.38;5001515;28;20053;-26
2023/03/02 05:21:50;;;;;;;1.83;1.15;;;;;;;11.39;52.88;95878.22;4995209;28;20030;-26
2023/03/02 05:24:16;;;;;;;1.30;0.80;;;;;;;11.37;52.72;95886.06;4995784;28;20033;-26
2023/03/02 05:26:41;;;;;;;1.40;0.88;;;;;;;11.41;52.98;95870.38;4995362;28;20018;-26
2023/03/02 05:29:07;;;;;;;1.73;1.42;;;;;;;11.50;52.77;95873.91;5002116;28;20422;-26
2023/03/02 05:31:39;;;;;;;1.60;0.93;;;;;;;11.44;52.62;95866.78;4997293;28;20045;-26
2023/03/02 05:34:07;;;;;;;2.67;1.00;;;;;;;11.57;52.50;95870.16;4998122;28;20029;-26
2023/03/02 05:36:32;;;;;;;1.15;0.80;;;;;;;11.46;52.81;95872.53;4998445;28;20060;-26
2023/03/02 05:38:57;;;;;;;1.83;0.93;;;;;;;11.49;52.63;95877.09;4999665;28;20054;-26
2023/03/02 05:41:23;;;;;;;1.80;0.90;;;;;;;11.54;52.96;95873.78;5000476;28;20018;-26
2023/03/02 05:43:49;;;;;;;2.38;1.05;;;;;;;11.43;53.34;95878.84;5005778;28;20501;-26
2023/03/02 05:46:16;;;;;;;1.33;0.90;;;;;;;11.35;53.36;95872.94;4998769;28;20033;-26
2023/03/02 05:48:41;;;;;;;1.50;1.10;;;;;;;11.51;53.25;95880.84;4999436;28;20117;-26
2023/03/02 05:51:07;;;;;;;1.58;0.90;;;;;;;11.33;53.48;95882.72;5003778;28;20440;-27
2023/03/02 05:53:32;;;;;;;2.58;1.20;;;;;;;11.29;54.06;95884.78;5007829;28;20080;-27
2023/03/02 05:55:57;;;;;;;1.95;1.20;;;;;;;11.41;53.43;95879.28;5005086;28;20022;-26
2023/03/02 05:58:23;;;;;;;2.30;0.98;;;;;;;11.35;53.59;95877.59;4998615;28;20355;-26
2023/03/02 06:00:49;;;;;;;3.58;1.27;;;;;;;11.54;53.51;95881.91;4999026;28;20074;-26
2023/03/02 06:03:16;;;;;;;2.40;1.10;;;;;;;11.62;53.01;95885.88;4998719;28;20126;-26
2023/03/02 06:05:41;;;;;;;3.45;1.20;;;;;;;11.39;53.38;95889.84;4998689;28;20030;-26
2023/03/02 06:08:07;;;;;;;2.25;0.93;;;;;;;11.43;53.45;95889.72;5000573;28;20505;-26
2023/03/02 06:10:33;;;;;;;3.22;1.20;;;;;;;11.43;52.88;95884.28;5002847;28;20457;-26
2023/03/02 06:12:58;;;;;;;2.67;1.40;;;;;;;11.46;53.26;95884.16;4999144;28;20026;-27
2023/03/02 06:15:28;;;;;;;2.28;1.33;;;;;;;11.43;53.49;95885.03;4998277;28;20041;-27
2023/03/02 06:17:55;;;;;;;2.78;1.40;;;;;;;11.52;53.85;95879.66;4998920;28;20022;-26
2023/03/02 06:20:20;;;;;;;3.00;1.60;;;;;;;11.51;53.53;95886.28;4998585;28;20026;-27
2023/03/02 06:22:46;;;;;;;3.88;1.77;;;;;;;11.51;53.80;95880.09;5007425;28;20029;-26
2023/03/02 06:25:18;;;;;;;3.85;2.15;;;;;;;11.42;53.18;95872.66;5005824;28;20084;-26
2023/03/02 06:27:44;;;;;;;7.40;3.00;;;;;;;11.34;53.90;95876.09;4998202;28;20022;-26
2023/03/02 06:30:14;;;;;;;6.47;3.25;;;;;;;11.35;53.29;95883.03;4998936;28;20022;-26
2023/03/02 06:32:41;;;;;;;6.38;2.78;;;;;;;11.62;53.07;95888.59;5001820;28;20436;-26
2023/03/02 06:35:07;;;;;;;4.03;2.22;;;;;;;11.41;53.60;95897.53;5001057;28;20031;-26
2023/03/02 06:37:33;;;;;;;4.10;2.33;;;;;;;11.47;54.07;95903.91;5000417;28;20022;-26
2023/03/02 06:39:58;;;;;;;3.92;2.20;;;;;;;11.50;53.34;95898.34;5002780;28;20447;-26
2023/03/02 06:42:25;;;;;;;5.57;2.10;;;;;;;11.35;53.94;95904.75;5004873;28;20077;-26
2023/03/02 06:44:53;;;;;;;3.55;1.65;;;;;;;11.45;53.65;95898.94;4997584;28;20106;-26
2023/03/02 06:47:20;;;;;;;3.45;1.83;;;;;;;11.57;53.25;95900.03;4997865;28;20029;-26
2023/03/02 06:49:45;;;;;;;3.35;1.95;;;;;;;11.52;53.65;95889.75;4998185;28;20049;-26
2023/03/02 06:52:12;;;;;;;4.10;1.60;;;;;;;11.55;53.57;95890.81;5004135;28;20040;-26
2023/03/02 06:54:38;;;;;;;4.22;1.60;;;;;;;11.47;53.91;95895.78;5005110;28;20028;-26
2023/03/02 06:57:03;;;;;;;1.95;1.20;;;;;;;11.39;54.20;95897.22;5007743;28;20108;-26
2023/03/02 06:59:29;;;;;;;2.47;1.20;;;;;;;11.47;54.32;95898.50;5000593;28;20426;-26
2023/03/02 07:01:54;;;;;;;3.13;1.48;;;;;;;11.51;53.60;95902.56;4998218;28;20955;-26
2023/03/02 07:04:20;;;;;;;2.10;1.40;;;;;;;11.47;53.59;95906.63;4997236;28;20030;-26
2023/03/02 07:06:45;;;;;;;2.50;1.17;;;;;;;11.46;53.65;95899.69;4998018;28;20033;-26
2023/03/02 07:09:11;;;;;;;3.25;1.25;;;;;;;11.60;53.66;95898.41;4997334;28;20530;-26
2023/03/02 07:11:36;;;;;;;1.85;1.38;;;;;;;11.49;53.72;95896.84;5003542;28;20508;-26
2023/03/02 07:14:02;;;;;;;3.53;1.25;;;;;;;11.58;53.97;95912.44;5005579;28;20030;-26
2023/03/02 07:16:29;;;;;;;3.90;1.25;;;;;;;11.57;53.44;95913.63;5003056;28;20048;-26
2023/03/02 07:18:54;;;;;;;1.85;1.10;;;;;;;11.70;53.54;95919.72;4997256;28;20306;-26
2023/03/02 07:21:20;;;;;;;2.78;1.70;;;;;;;11.42;54.25;95909.91;4996272;28;20486;-26
2023/03/02 07:23:45;;;;;;;4.50;1.98;;;;;;;11.78;53.62;95914.81;4997082;28;20026;-26
2023/03/02 07:26:10;;;;;;;4.30;2.30;;;;;;;11.64;53.81;95918.78;4997380;28;20470;-26
2023/03/02 07:28:42;;;;;;;4.00;2.85;;;;;;;11.68;53.27;95922.13;5003190;28;20478;-27
2023/03/02 07:31:08;;;;;;;4.90;2.10;;;;;;;11.53;53.74;95921.13;5003886;28;20046;-27
2023/03/02 07:33:34;;;;;;;3.33;1.90;;;;;;;11.55;54.00;95923.41;5003338;28;20022;-27
2023/03/02 07:36:01;;;;;;;3.78;1.73;;;;;;;11.81;53.14;95925.53;4997035;28;20030;-27
2023/03/02 07:38:26;;;;;;;3.47;2.10;;;;;;;11.47;54.28;95928.34;4997404;28;20458;-26
2023/03/02 07:40:52;;;;;;;3.60;2.08;;;;;;;11.58;54.23;95936.09;4996898;28;20033;-26
2023/03/02 07:43:18;;;;;;;2.25;1.52;;;;;;;11.46;54.33;95943.13;5003373;28;20152;-26
2023/03/02 07:45:43;;;;;;;6.70;2.10;;;;;;;11.52;53.85;95946.78;4998637;28;20026;-26
2023/03/02 07:48:09;;;;;;;3.40;1.80;;;;;;;11.62;54.17;95942.91;5001381;28;20070;-27
2023/03/02 07:50:34;;;;;;;3.55;2.03;;;;;;;11.56;54.33;95941.97;4997137;28;20046;-27
2023/03/02 07:53:00;;;;;;;3.75;1.90;;;;;;;11.61;54.26;95948.81;4996493;28;20030;-26
2023/03/02 07:55:26;;;;;;;3.35;1.77;;;;;;;11.64;54.03;95943.22;4996591;28;20460;-26
2023/03/02 07:57:52;;;;;;;3.92;2.10;;;;;;;11.64;54.51;95940.50;5004406;28;20104;-26
2023/03/02 08:00:18;;;;;;;5.60;2.10;;;;;;;11.70;54.43;95957.00;5002512;28;20125;-27
2023/03/02 08:02:43;;;;;;;3.88;1.90;;;;;;;11.63;54.93;95949.09;5002501;28;20026;-26
2023/03/02 08:05:10;;;;;;;4.47;1.90;;;;;;;11.50;54.96;95949.16;4996420;28;20080;-27
2023/03/02 08:07:36;;;;;;;3.25;1.92;;;;;;;11.61;54.51;95948.81;4996030;28;20026;-27
2023/03/02 08:10:02;;;;;;;4.15;1.90;;;;;;;11.60;54.83;95942.63;4996908;28;20108;-26
2023/03/02 08:12:28;;;;;;;4.57;1.88;;;;;;;11.60;54.77;95953.47;4996038;28;20057;-26
2023/03/02 08:14:54;;;;;;;4.82;1.77;;;;;;;11.80;54.32;95955.88;4995939;28;20022;-26
2023/03/02 08:17:19;;;;;;;4.43;2.00;;;;;;;11.74;54.81;95949.47;4996293;28;20434;-27
2023/03/02 08:19:46;;;;;;;3.83;1.90;;;;;;;11.66;54.73;95940.81;5002468;28;20022;-26
2023/03/02 08:22:12;;;;;;;2.88;2.03;;;;;;;11.81;54.72;95947.28;4996730;28;20106;-26
2023/03/02 08:24:39;;;;;;;3.55;2.00;;;;;;;11.62;55.01;95947.59;4994642;28;20060;-26
2023/03/02 08:27:05;;;;;;;3.33;1.73;;;;;;;11.83;54.91;95947.59;5002961;28;20040;-26
2023/03/02 08:29:31;;;;;;;3.60;1.95;;;;;;;11.86;54.24;95944.00;4995944;28;20351;-27
2023/03/02 08:31:57;;;;;;;3.13;1.70;;;;;;;11.84;54.38;95940.97;5001589;28;20068;-27
2023/03/02 08:34:24;;;;;;;3.92;1.40;;;;;;;11.93;54.29;95931.31;5004888;28;20053;-26
2023/03/02 08:36:49;;;;;;;2.25;1.42;;;;;;;11.90;54.14;95929.50;5001493;28;20048;-26
2023/03/02 08:39:15;;;;;;;3.90;1.55;;;;;;;11.92;54.53;95938.72;4996022;28;20505;-26
2023/03/02 08:41:40;;;;;;;4.05;1.92;;;;;;;12.15;53.44;95937.44;4996093;28;20029;-27
2023/03/02 08:44:06;;;;;;;2.70;1.60;;;;;;;12.06;54.00;95942.84;4995579;28;20029;-27
2023/03/02 08:46:31;;;;;;;2.72;1.52;;;;;;;12.11;54.08;95936.84;4996523;28;20409;-26
2023/03/02 08:48:57;;;;;;;4.78;1.70;;;;;;;12.10;54.31;95938.03;5000813;28;20019;-27
2023/03/02 08:51:24;;;;;;;2.22;1.50;;;;;;;12.27;53.82;95939.28;5001954;28;20028;-27
2023/03/02 08:53:53;;;;;;;2.15;1.40;;;;;;;12.23;54.37;95944.88;4996208;28;20488;-27
2023/03/02 08:56:25;;;;;;;4.00;1.85;;;;;;;12.24;54.04;95938.22;4995371;28;20108;-27
2023/03/02 08:58:53;;;;;;;3.73;1.83;;;;;;;12.19;54.49;95929.91;4995863;28;20044;-27
2023/03/02 09:01:22;;;;;;;2.80;1.70;;;;;;;12.16;54.72;95944.41;4995339;28;20046;-27
2023/03/02 09:03:48;;;;;;;3.60;2.05;;;;;;;12.44;54.54;95940.56;4995914;28;20505;-26
2023/03/02 09:06:13;;;;;;;2.47;1.55;;;;;;;12.47;53.91;95942.38;5001809;28;20022;-27
2023/03/02 09:08:39;;;;;;;3.58;1.95;;;;;;;12.48;54.35;95943.91;5001647;28;20088;-27
2023/03/02 09:11:05;;;;;;;2.72;1.50;;;;;;;12.43;54.01;95944.47;4995802;28;20453;-27
2023/03/02 09:13:31;;;;;;;6.30;1.80;;;;;;;12.42;54.13;95950.38;4995270;28;20023;-26
2023/03/02 09:15:57;;;;;;;2.83;1.65;;;;;;;12.49;54.10;95944.63;5002856;28;20092;-27
2023/03/02 09:18:23;;;;;;;4.75;1.80;;;;;;;12.50;54.44;95938.75;5001818;28;20479;-26
2023/03/02 09:20:52;;;;;;;6.18;2.40;;;;;;;12.59;54.04;95951.63;5001049;28;20022;-27
2023/03/02 09:23:19;;;;;;;3.72;1.70;;;;;;;12.58;54.29;95952.81;4995827;28;20030;-27
2023/03/02 09:25:48;;;;;;;5.00;2.10;;;;;;;12.70;54.47;95943.78;4995362;28;20458;-27
2023/03/02 09:28:15;;;;;;;3.85;1.90;;;;;;;12.79;53.92;95937.59;4995914;28;20101;-27
2023/03/02 09:30:41;;;;;;;5.00;2.33;;;;;;;12.69;54.78;95936.06;4995091;28;20011;-27
2023/03/02 09:33:07;;;;;;;5.93;2.05;;;;;;;12.68;54.76;95932.59;5002216;28;20029;-27
2023/03/02 09:35:32;;;;;;;3.50;1.77;;;;;;;12.76;54.30;95938.47;5002284;28;20063;-27
2023/03/02 09:37:58;;;;;;;2.88;1.40;;;;;;;12.70;54.95;95924.72;5004329;28;20037;-27
2023/03/02 09:40:26;;;;;;;4.05;1.42;;;;;;;12.83;54.56;95927.31;4995501;28;20026;-27
2023/03/02 09:43:19;;;;;;;4.60;1.80;;;;;;;12.91;54.20;95936.69;4995299;28;20053;-27
2023/03/02 09:45:47;;;;;;;2.72;1.50;;;;;;;12.59;55.05;95936.06;5002156;28;20037;-27
2023/03/02 09:48:28;;;;;;;2.72;1.60;;;;;;;12.71;54.78;95933.66;4995121;28;20469;-27
2023/03/02 09:50:59;;;;;;;3.33;1.50;;;;;;;12.80;54.70;95936.38;5001466;28;20022;-27
2023/03/02 09:53:40;;;;;;;2.58;1.27;;;;;;;13.01;54.12;95937.44;5001636;28;20452;-27
2023/03/02 09:56:13;;;;;;;2.88;1.50;;;;;;;12.89;54.72;95936.38;4999095;28;20026;-27
2023/03/02 09:58:40;;;;;;;2.15;1.30;;;;;;;12.85;54.40;95941.22;4997302;28;20030;-27
2023/03/02 10:01:14;;;;;;;3.38;1.25;;;;;;;12.96;54.72;95933.38;4994589;28;20043;-26
2023/03/02 10:03:57;;;;;;;3.00;1.50;;;;;;;13.12;53.88;95927.59;4995390;28;20029;-26
2023/03/02 10:06:23;;;;;;;2.30;1.70;;;;;;;12.97;54.51;95932.16;4999488;28;20501;-26
2023/03/02 10:08:49;;;;;;;4.05;1.75;;;;;;;12.99;54.51;95935.16;4996713;28;20030;-27
2023/03/02 10:12:03;;;;;;;3.47;1.80;;;;;;;12.98;54.10;95936.41;5001704;28;20466;-27
2023/03/02 10:14:43;;;;;;;5.20;1.70;;;;;;;13.10;54.49;95934.72;4990585;28;20037;-27
2023/03/02 10:17:20;;;;;;;5.47;1.88;;;;;;;13.04;55.23;95934.56;4995790;28;20030;-27
2023/03/02 10:19:55;;;;;;;3.75;1.83;;;;;;;13.10;54.51;95940.94;4998975;28;20030;-27
2023/03/02 10:22:45;;;;;;;3.63;1.88;;;;;;;12.92;54.96;95933.50;5003863;28;20108;-27
2023/03/02 10:25:20;;;;;;;3.15;1.60;;;;;;;12.96;54.64;95933.38;4996767;28;20049;-26
2023/03/02 10:27:51;;;;;;;4.32;1.80;;;;;;;12.86;54.48;95929.09;5001841;28;20038;-26
2023/03/02 10:30:34;;;;;;;3.90;1.85;;;;;;;12.84;55.65;95931.56;4998816;28;20037;-27
2023/03/02 10:33:11;;;;;;;4.35;1.98;;;;;;;12.97;54.77;95934.13;5004825;28;20030;-27
2023/03/02 10:35:37;;;;;;;4.38;2.03;;;;;;;13.06;55.02;95931.41;5005112;28;20026;-27
2023/03/02 10:38:23;;;;;;;4.43;1.88;;;;;;;13.17;54.01;95921.59;4998150;28;20026;-27
2023/03/02 10:40:58;;;;;;;3.25;2.00;;;;;;;13.24;54.99;95921.28;4998031;28;20073;-27
2023/03/02 10:43:34;;;;;;;3.92;2.17;;;;;;;13.10;55.40;95921.88;5005221;28;20042;-27
2023/03/02 10:46:06;;;;;;;3.00;1.85;;;;;;;13.05;55.57;95917.03;4997858;28;20080;-26
2023/03/02 10:48:37;;;;;;;5.65;2.03;;;;;;;13.12;55.43;95926.84;4998283;28;20025;-27
2023/03/02 10:51:03;;;;;;;2.38;1.90;;;;;;;13.32;54.62;95918.25;4997992;28;20015;-27
2023/03/02 10:53:29;;;;;;;5.32;1.80;;;;;;;13.26;54.49;95916.13;4997973;28;20102;-27
2023/03/02 10:55:54;;;;;;;4.18;2.00;;;;;;;13.28;54.66;95910.22;5006180;28;20528;-27
2023/03/02 10:58:24;;;;;;;4.00;2.10;;;;;;;13.35;54.55;95907.22;5007274;28;20014;-27
2023/03/02 11:01:06;;;;;;;2.13;1.70;;;;;;;13.29;54.63;95896.16;4998719;28;20043;-27
2023/03/02 11:03:32;;;;;;;2.92;2.00;;;;;;;13.49;54.51;95897.63;4997551;28;20046;-27
2023/03/02 11:06:10;;;;;;;2.47;2.00;;;;;;;13.43;54.72;95902.19;4997914;28;20025;-26
2023/03/02 11:08:35;;;;;;;3.80;2.10;;;;;;;13.50;54.19;95893.69;4997388;28;20030;-27
2023/03/02 11:11:03;;;;;;;6.20;2.80;;;;;;;13.35;54.83;95892.84;4999245;28;20110;-27
2023/03/02 11:13:37;;;;;;;6.20;2.20;;;;;;;13.18;55.25;95904.03;5002707;28;20030;-27
2023/03/02 11:16:30;;;;;;;3.70;2.35;;;;;;;13.45;53.92;95905.22;4997092;28;20521;-27
2023/03/02 11:19:12;;;;;;;4.50;2.50;;;;;;;13.63;53.79;95902.44;4997629;28;20041;-27
2023/03/02 11:21:49;;;;;;;6.00;2.47;;;;;;;13.55;54.00;95901.25;4996745;28;20117;-27
2023/03/02 11:24:22;;;;;;;4.47;2.00;;;;;;;13.37;54.24;95893.09;4997506;28;20105;-27
2023/03/02 11:26:53;;;;;;;5.03;2.83;;;;;;;13.39;54.47;95898.84;4995881;28;20122;-27
2023/03/02 11:29:31;;;;;;;4.15;2.42;;;;;;;13.68;53.27;95901.81;5009405;28;20022;-27
2023/03/02 11:32:44;;;;;;;3.78;2.45;;;;;;;13.36;54.53;95897.81;5003286;28;20058;-27
2023/03/02 11:35:29;;;;;;;9.18;5.82;;;;;;;13.55;54.43;95896.56;4987985;28;20502;-27
2023/03/02 11:38:02;;;;;;;6.20;2.65;;;;;;;13.46;54.18;95901.28;5001522;28;20494;-27
2023/03/02 11:40:39;;;;;;;2.72;2.30;;;;;;;13.55;53.64;95901.25;4998268;28;20022;-27